createdAt,value
2023-04-08T00:04:10.096Z,101545.91
2023-04-08T00:09:12.640Z,101546.25
2023-04-08T00:14:15.003Z,101551.00
2023-04-08T00:19:17.379Z,101545.78
2023-04-08T00:24:19.866Z,101561.38
2023-04-08T00:29:22.244Z,101567.22
2023-04-08T00:34:25.037Z,101571.72
2023-04-08T00:39:28.056Z,101571.75
2023-04-08T00:44:30.561Z,101579.25
2023-04-08T00:49:33.026Z,101585.13
2023-04-08T00:54:37.437Z,101588.19
2023-04-08T00:59:40.370Z,101587.66
2023-04-08T01:05:04.001Z,101594.88
2023-04-08T01:10:29.477Z,101591.28
2023-04-08T01:15:34.271Z,101598.25
2023-04-08T01:20:37.779Z,101593.53
2023-04-08T01:25:40.303Z,101594.34
2023-04-08T01:30:44.520Z,101592.16
2023-04-08T01:35:47.208Z,101604.09
2023-04-08T01:40:51.458Z,101598.28
2023-04-08T01:45:58.842Z,101605.75
2023-04-08T01:51:02.112Z,101607.41
2023-04-08T01:56:14.798Z,101604.94
2023-04-08T02:01:20.565Z,101616.84
2023-04-08T02:06:27.976Z,101627.38
2023-04-08T02:11:30.394Z,101621.84
2023-04-08T02:16:54.936Z,101626.78
2023-04-08T02:22:13.868Z,101638.72
2023-04-08T02:27:18.158Z,101654.22
2023-04-08T02:32:21.533Z,101658.13
2023-04-08T02:37:24.042Z,101662.31
2023-04-08T02:42:26.683Z,101654.81
2023-04-08T02:47:29.030Z,101659.56
2023-04-08T02:52:31.438Z,101668.47
2023-04-08T02:57:33.945Z,101675.47
2023-04-08T03:02:36.645Z,101675.47
2023-04-08T03:07:39.202Z,101681.28
2023-04-08T03:12:41.881Z,101682.63
2023-04-08T03:17:44.376Z,101685.63
2023-04-08T03:22:46.930Z,101696.66
2023-04-08T03:27:49.491Z,101698.59
2023-04-08T03:32:51.960Z,101708.19
2023-04-08T03:37:55.422Z,101694.19
2023-04-08T03:42:57.808Z,101702.63
2023-04-08T03:48:00.470Z,101706.72
2023-04-08T03:53:02.945Z,101705.97
2023-04-08T03:58:05.360Z,101712.50
2023-04-08T04:03:07.855Z,101709.88
2023-04-08T04:08:10.193Z,101722.47
2023-04-08T04:13:12.477Z,101723.28
2023-04-08T04:18:14.992Z,101732.59
2023-04-08T04:23:17.335Z,101733.63
2023-04-08T04:28:19.650Z,101740.91
2023-04-08T04:33:22.307Z,101739.41
2023-04-08T04:38:24.667Z,101757.25
2023-04-08T04:43:27.156Z,101758.41
2023-04-08T04:48:29.818Z,101763.22
2023-04-08T04:53:32.222Z,101773.06
2023-04-08T04:58:34.546Z,101782.94
2023-04-08T05:03:37.036Z,101792.00
2023-04-08T05:08:39.681Z,101782.97
2023-04-08T05:13:42.011Z,101792.31
2023-04-08T05:18:44.341Z,101794.31
2023-04-08T05:23:46.652Z,101804.28
2023-04-08T05:28:50.258Z,101800.09
2023-04-08T05:33:53.244Z,101801.13
2023-04-08T05:38:55.994Z,101809.88
2023-04-08T05:43:58.245Z,101815.56
2023-04-08T05:49:00.729Z,101810.88
2023-04-08T05:54:03.169Z,101822.75
2023-04-08T05:59:05.560Z,101833.16
2023-04-08T06:04:08.114Z,101840.66
2023-04-08T06:09:10.596Z,101853.47
2023-04-08T06:14:13.185Z,101854.47
2023-04-08T06:19:15.770Z,101857.53
2023-04-08T06:24:18.235Z,101870.56
2023-04-08T06:29:21.634Z,101867.56
2023-04-08T06:34:24.147Z,101861.41
2023-04-08T06:39:26.506Z,101868.69
2023-04-08T06:44:28.997Z,101859.63
2023-04-08T06:49:31.780Z,101871.03
2023-04-08T06:54:34.232Z,101861.97
2023-04-08T06:59:36.562Z,101867.78
2023-04-08T07:04:38.871Z,101855.31
2023-04-08T07:09:43.551Z,101851.00
2023-04-08T07:14:45.929Z,101854.16
2023-04-08T07:19:48.432Z,101851.28
2023-04-08T07:24:50.960Z,101846.19
2023-04-08T07:29:54.773Z,101863.44
2023-04-08T07:34:57.130Z,101868.50
2023-04-08T07:39:59.452Z,101878.00
2023-04-08T07:45:01.778Z,101875.06
2023-04-08T07:50:06.354Z,101870.78
2023-04-08T07:55:09.297Z,101877.81
2023-04-08T08:00:12.199Z,101907.63
2023-04-08T08:05:17.375Z,101871.69
2023-04-08T08:10:19.800Z,101872.59
2023-04-08T08:15:22.184Z,101878.06
2023-04-08T08:20:24.593Z,101874.28
2023-04-08T08:25:27.039Z,101873.91
2023-04-08T08:30:29.455Z,101870.56
2023-04-08T08:35:31.890Z,101861.25
2023-04-08T08:40:34.398Z,101868.41
2023-04-08T08:45:41.237Z,101880.44
2023-04-08T08:50:44.243Z,101883.56
2023-04-08T08:56:13.571Z,101867.28
2023-04-08T09:01:47.707Z,101883.28
2023-04-08T09:07:08.680Z,101890.00
2023-04-08T09:12:11.195Z,101905.06
2023-04-08T09:17:13.652Z,101881.34
2023-04-08T09:22:16.186Z,101891.53
2023-04-08T09:27:34.484Z,101895.22
2023-04-08T09:32:50.065Z,101896.13
2023-04-08T09:37:52.609Z,101900.84
2023-04-08T09:42:57.395Z,101883.22
2023-04-08T09:48:18.664Z,101878.25
2023-04-08T09:53:30.479Z,101895.19
2023-04-08T09:58:42.991Z,101888.00
2023-04-08T10:03:55.916Z,101889.34
2023-04-08T10:08:59.360Z,101903.16
2023-04-08T10:14:02.240Z,101905.19
2023-04-08T10:19:50.860Z,101920.97
2023-04-08T10:25:31.754Z,101912.53
2023-04-08T10:30:34.143Z,101922.47
2023-04-08T10:35:38.341Z,101926.13
2023-04-08T10:40:44.591Z,101917.03
2023-04-08T10:45:48.550Z,101925.81
2023-04-08T10:50:57.719Z,101925.53
2023-04-08T10:56:13.602Z,101923.22
2023-04-08T11:01:16.326Z,101923.97
2023-04-08T11:06:19.746Z,101933.28
2023-04-08T11:11:23.135Z,101937.94
2023-04-08T11:16:28.341Z,101928.53
2023-04-08T11:21:31.979Z,101930.31
2023-04-08T11:26:34.906Z,101943.19
2023-04-08T11:31:38.090Z,101949.88
2023-04-08T11:36:43.424Z,101951.66
2023-04-08T11:41:45.741Z,101951.09
2023-04-08T11:46:57.535Z,101954.06
2023-04-08T11:52:00.748Z,101945.31
2023-04-08T11:57:03.353Z,101964.13
2023-04-08T12:02:06.375Z,101968.03
2023-04-08T12:07:08.746Z,101985.75
2023-04-08T12:12:11.073Z,101971.97
2023-04-08T12:17:13.369Z,101973.94
2023-04-08T12:22:16.641Z,101979.94
2023-04-08T12:27:19.127Z,101984.75
2023-04-08T12:32:21.868Z,101981.50
2023-04-08T12:37:24.581Z,101984.88
2023-04-08T12:42:28.211Z,101981.78
2023-04-08T12:47:30.656Z,101977.88
2023-04-08T12:52:33.606Z,101976.16
2023-04-08T12:57:35.992Z,101983.25
2023-04-08T13:02:38.366Z,101977.22
2023-04-08T13:07:40.826Z,101992.50
2023-04-08T13:12:43.258Z,101986.56
2023-04-08T13:17:45.677Z,101988.06
2023-04-08T13:22:48.097Z,102004.97
2023-04-08T13:27:50.604Z,102013.44
2023-04-08T13:32:52.983Z,102011.41
2023-04-08T13:37:55.543Z,101998.09
2023-04-08T13:42:58.046Z,102001.63
2023-04-08T13:48:00.419Z,102000.47
2023-04-08T13:53:02.915Z,102011.47
2023-04-08T13:58:11.218Z,102004.34
2023-04-08T14:03:19.799Z,101990.75
2023-04-08T14:08:25.937Z,101989.41
2023-04-08T14:13:28.427Z,101986.19
2023-04-08T14:18:31.480Z,101993.22
2023-04-08T14:23:33.905Z,102011.66
2023-04-08T14:28:36.767Z,102012.31
2023-04-08T14:33:39.941Z,102013.44
2023-04-08T14:38:42.270Z,102009.88
2023-04-08T14:43:44.533Z,102004.84
2023-04-08T14:48:47.889Z,101999.88
2023-04-08T14:53:50.209Z,101996.59
2023-04-08T14:58:52.895Z,101999.41
2023-04-08T15:03:55.584Z,101989.69
2023-04-08T15:08:58.076Z,102007.53
2023-04-08T15:14:00.700Z,102025.09
2023-04-08T15:19:03.055Z,102028.75
2023-04-08T15:24:05.654Z,102036.28
2023-04-08T15:29:08.152Z,102039.63
2023-04-08T15:34:10.698Z,102047.16
2023-04-08T15:39:13.007Z,102054.38
2023-04-08T15:44:16.003Z,102061.63
2023-04-08T15:49:18.366Z,102061.63
2023-04-08T15:54:20.774Z,102069.97
2023-04-08T15:59:23.100Z,102085.78
2023-04-08T16:04:25.621Z,102080.19
2023-04-08T16:09:28.096Z,102075.16
2023-04-08T16:14:30.595Z,102079.31
2023-04-08T16:19:32.915Z,102098.47
2023-04-08T16:24:38.259Z,102099.88
2023-04-08T16:29:40.887Z,102109.06
2023-04-08T16:34:43.197Z,102124.59
2023-04-08T16:39:46.411Z,102121.78
2023-04-08T16:44:48.774Z,102105.63
2023-04-08T16:49:53.983Z,102128.66
2023-04-08T16:54:57.603Z,102142.75
2023-04-08T16:59:59.999Z,102136.31
2023-04-08T17:05:02.670Z,102128.75
2023-04-08T17:10:06.776Z,102137.59
2023-04-08T17:15:09.961Z,102131.75
2023-04-08T17:20:12.541Z,102124.19
2023-04-08T17:25:15.007Z,102136.91
2023-04-08T17:30:17.471Z,102129.09
2023-04-08T17:35:19.884Z,102131.56
2023-04-08T17:40:22.718Z,102132.38
2023-04-08T17:45:26.126Z,102138.50
2023-04-08T17:50:28.524Z,102126.53
2023-04-08T17:55:31.038Z,102121.78
2023-04-08T18:00:33.394Z,102116.75
2023-04-08T18:05:35.842Z,102140.63
2023-04-08T18:10:38.847Z,102137.03
2023-04-08T18:15:41.225Z,102134.50
2023-04-08T18:20:43.604Z,102141.69
2023-04-08T18:25:50.508Z,102134.97
2023-04-08T18:30:53.303Z,102134.97
2023-04-08T18:35:57.043Z,102134.91
2023-04-08T18:41:00.901Z,102119.69
2023-04-08T18:46:03.651Z,102122.44
2023-04-08T18:51:06.082Z,102123.00
2023-04-08T18:56:15.361Z,102123.25
2023-04-08T19:01:17.782Z,102123.25
2023-04-08T19:06:22.905Z,102120.97
2023-04-08T19:11:29.157Z,102122.03
2023-04-08T19:16:31.645Z,102122.78
2023-04-08T19:21:37.974Z,102133.63
2023-04-08T19:26:40.425Z,102148.88
2023-04-08T19:31:43.071Z,102139.94
2023-04-08T19:36:45.917Z,102148.31
2023-04-08T19:41:48.945Z,102148.81
2023-04-08T19:46:51.627Z,102150.19
2023-04-08T19:51:54.363Z,102142.41
2023-04-08T19:56:58.257Z,102148.16
2023-04-08T20:02:00.860Z,102146.16
2023-04-08T20:07:04.117Z,102145.84
2023-04-08T20:12:06.700Z,102143.28
2023-04-08T20:17:09.527Z,102155.16
2023-04-08T20:22:11.898Z,102142.38
2023-04-08T20:27:14.781Z,102136.50
2023-04-08T20:32:17.121Z,102139.47
2023-04-08T20:37:19.972Z,102138.63
2023-04-08T20:42:22.834Z,102146.88
2023-04-08T20:47:26.003Z,102149.94
2023-04-08T20:52:28.746Z,102146.56
2023-04-08T20:57:31.174Z,102148.47
2023-04-08T21:02:33.997Z,102143.63
2023-04-08T21:07:38.722Z,102139.97
2023-04-08T21:12:41.106Z,102150.28
2023-04-08T21:17:43.523Z,102131.34
2023-04-08T21:22:45.886Z,102145.03
2023-04-08T21:27:48.261Z,102146.72
2023-04-08T21:32:50.853Z,102147.72
2023-04-08T21:37:53.250Z,102143.22
2023-04-08T21:42:55.677Z,102142.59
2023-04-08T21:47:58.042Z,102142.59
2023-04-08T21:53:01.047Z,102138.75
2023-04-08T21:58:03.735Z,102148.53
2023-04-08T22:10:07.106Z,102139.09
2023-04-08T22:15:10.391Z,102140.59
2023-04-08T22:20:12.822Z,102147.50
2023-04-08T22:25:15.657Z,102143.81
2023-04-08T22:30:18.089Z,102141.63
2023-04-08T22:35:20.482Z,102132.91
2023-04-08T22:40:23.068Z,102133.22
2023-04-08T22:45:26.150Z,102123.41
2023-04-08T22:50:28.820Z,102117.88
2023-04-08T22:55:31.470Z,102112.00
2023-04-08T23:00:33.928Z,102118.06
2023-04-08T23:05:36.488Z,102136.53
2023-04-08T23:10:39.060Z,102138.97
2023-04-08T23:15:41.957Z,102132.00
2023-04-08T23:20:51.837Z,102139.53
2023-04-08T23:25:55.957Z,102140.53
2023-04-08T23:30:58.559Z,102137.28
2023-04-08T23:36:01.019Z,102138.09
2023-04-08T23:41:07.497Z,102142.31
2023-04-08T23:46:10.100Z,102135.09
2023-04-08T23:51:12.651Z,102144.25
2023-04-08T23:56:15.214Z,102147.19
